Latest Weather Observations for Coolangatta

IDN60801

Issued at 7:02 pm EST Thursday 3 September 2015 (issued every 30 minutes, with the page automatically refreshed every 10 minutes)

About weather observations | Map of weather stations | Latest weather observations for NSW | Other Formats
Station Details ID: 040717 Name: COOLANGATTA Lat: -28.17 Lon: 153.51 Height: 4.0 m
Data from the previous 72 hours. | See also: Recent months at Coolangatta
Date/Time
EST
Temp
°C
App
Temp
°C
Dew
Point
Rel
Hum
%
Delta-T
°C
Wind Press
QNH
hPa
Press
MSL
hPa
Rain
since 9 am
mm
Dir
 
Spd
km/h
Gust
km/h
Spd
kts
Gust
kts
03/07:00pm 19.7 14.3 4.6 37 7.3 W 22 32 12 17 1011.8 1011.8 0.0
03/06:30pm 20.3 14.8 3.9 34 7.8 W 22 35 12 19 1011.0 1011.0 0.0
03/06:00pm 19.8 16.0 3.9 35 7.6 W 13 19 7 10 1010.6 1010.6 0.0
03/05:30pm 20.7 16.0 3.4 32 8.2 W 17 28 9 15 1009.8 1009.8 0.0
03/05:00pm 22.4 15.9 2.5 27 9.4 W 26 41 14 22 1008.8 1008.8 0.0
03/04:30pm 23.5 18.7 2.4 25 10.0 W 17 32 9 17 1008.3 1008.3 0.0
03/04:00pm 23.9 16.2 2.1 24 10.4 W 32 50 17 27 1007.7 1007.7 0.0
03/03:30pm 24.6 16.5 0.8 21 11.1 W 33 57 18 31 1007.0 1007.0 0.0
03/03:21pm 24.6 17.3 0.2 20 11.2 W 28 52 15 28 1006.9 1006.9 0.0
03/03:00pm 25.2 18.3 2.6 23 11.0 NW 28 41 15 22 1006.8 1006.8 0.0
03/02:30pm 25.1 16.9 2.5 23 10.9 WNW 35 61 19 33 1006.4 1006.4 0.0
03/02:08pm 25.2 18.8 5.4 28 10.1 WNW 28 48 15 26 1006.2 1006.2 0.0
03/02:00pm 25.2 19.7 5.9 29 9.9 WNW 24 41 13 22 1006.4 1006.4 0.0
03/01:30pm 24.5 19.0 7.6 34 8.9 WNW 26 41 14 22 1006.8 1006.8 0.0
03/01:08pm 24.1 17.4 7.3 34 8.8 WNW 32 52 17 28 1007.5 1007.5 0.0
03/01:00pm 24.4 18.2 8.0 35 8.7 WNW 30 43 16 23 1007.7 1007.7 0.0
03/12:30pm 24.1 19.1 9.7 40 7.9 WNW 26 37 14 20 1008.2 1008.2 0.0
03/12:00pm 24.3 21.4 12.3 47 6.9 WNW 19 28 10 15 1008.7 1008.7 0.0
03/11:30am 23.7 19.7 13.0 51 6.2 WNW 26 37 14 20 1008.9 1008.9 0.0
03/11:00am 22.9 21.7 17.1 70 3.6 WNW 19 28 10 15 1009.3 1009.3 0.0
03/10:30am 21.7 20.5 17.5 77 2.6 NNW 20 32 11 17 1009.8 1009.8 0.0
03/10:00am 20.9 18.3 17.9 83 1.9 N 28 37 15 20 1010.1 1010.1 0.0
03/09:30am 20.4 17.6 17.2 82 2.0 N 28 35 15 19 1010.3 1010.3 0.0
03/09:13am 19.7 16.7 16.7 83 1.8 N 28 37 15 20 1010.6 1010.6 0.0
03/09:00am 19.7 18.0 17.1 85 1.6 NNW 22 32 12 17 1010.8 1010.8 6.4
03/08:30am 18.4 17.4 16.6 89 1.1 NNW 17 26 9 14 1011.1 1011.1 6.4
03/08:18am 18.3 17.3 16.6 90 1.0 NNW 17 28 9 15 1011.1 1011.1 6.4
03/08:00am 18.3 16.9 16.6 90 1.0 NNW 19 28 10 15 1011.1 1011.1 6.4
03/07:30am 17.7 16.3 16.6 93 0.7 NNW 19 24 10 13 1011.3 1011.3 6.4
03/07:15am 17.6 14.9 16.5 93 0.7 NNW 26 37 14 20 1011.1 1011.1 6.4
03/07:00am 17.6 14.1 16.5 93 0.7 NNW 30 41 16 22 1010.4 1010.4 6.4
03/06:56am 17.7 13.9 16.6 93 0.7 NNW 32 43 17 23 1010.7 1010.7 6.2
03/06:43am 17.6 15.3 16.6 94 0.6 N 24 32 13 17 1010.6 1010.6 4.8
03/06:30am 17.3 15.2 16.2 93 0.7 NNW 22 32 12 17 1010.8 1010.8 4.6
03/06:09am 17.4 15.7 15.7 90 1.0 NW 19 28 10 15 1011.5 1011.5 1.4
03/06:00am 17.6 16.1 15.4 87 1.3 NW 17 24 9 13 1011.4 1011.4 0.0
03/05:32am 17.3 16.2 15.3 88 1.2 NNW 15 24 8 13 1010.6 1010.6 0.0
03/05:30am 17.2 16.1 15.2 88 1.2 NNW 15 24 8 13 1010.5 1010.5 0.0
03/05:00am 16.8 16.0 15.0 89 1.0 NNW 13 19 7 10 1010.7 1010.7 0.0
03/04:49am 16.7 16.1 14.7 88 1.1 NNW 11 17 6 9 1010.7 1010.7 0.0
03/04:30am 16.5 15.8 14.3 87 1.3 NW 11 17 6 9 1010.8 1010.8 0.0
03/04:00am 16.5 15.4 14.3 87 1.3 NW 13 15 7 8 1010.8 1010.8 0.0
03/03:30am 16.7 15.1 14.0 84 1.5 NNW 15 19 8 10 1010.8 1010.8 0.0
03/03:00am 17.3 15.4 14.2 82 1.8 NNW 17 22 9 12 1011.6 1011.6 0.0
03/02:30am 17.4 14.2 14.3 82 1.8 NNW 24 39 13 21 1011.5 1011.5 0.0
03/02:00am 17.8 15.6 13.3 75 2.5 NW 17 22 9 12 1013.2 1013.2 0.0
03/01:30am 18.6 16.0 13.7 73 2.8 NNW 20 28 11 15 1012.8 1012.8 0.0
03/01:00am 18.3 15.4 13.0 71 3.0 N 20 24 11 13 1013.2 1013.2 0.0
03/12:30am 18.6 16.2 12.8 69 3.3 NNW 17 24 9 13 1014.4 1014.4 0.0
03/12:00am 17.7 16.2 13.2 75 2.5 NW 13 19 7 10 1014.8 1014.8 0.0
 
Date/Time
EST
Temp
°C
App
Temp
°C
Dew
Point
Rel
Hum
%
Delta-T
°C
Wind Press
QNH
hPa
Press
MSL
hPa
Rain
since 9 am
mm
Dir
 
Spd
km/h
Gust
km/h
Spd
kts
Gust
kts
02/11:30pm 16.3 15.8 12.5 78 2.1 NW 7 9 4 5 1015.1 1015.1 0.0
02/11:00pm 16.8 15.8 12.3 75 2.5 WNW 9 11 5 6 1014.9 1014.9 0.0
02/10:30pm 15.3 13.5 12.1 81 1.7 NW 13 15 7 8 1014.7 1014.7 0.0
02/10:00pm 14.1 13.2 10.7 80 1.8 WSW 6 6 3 3 1014.9 1014.9 0.0
02/09:30pm 13.3 12.8 10.7 84 1.4 WSW 4 9 2 5 1015.0 1015.0 0.0
02/09:00pm 13.0 11.2 10.9 87 1.1 WSW 11 15 6 8 1015.0 1015.0 0.0
02/08:30pm 12.8 11.6 10.3 85 1.3 W 7 9 4 5 1015.1 1015.1 0.0
02/08:00pm 13.3 12.4 10.5 83 1.5 WSW 6 7 3 4 1015.4 1015.4 0.0
02/07:30pm 13.8 12.4 10.8 82 1.6 WSW 9 13 5 7 1015.7 1015.7 0.0
02/07:00pm 14.7 13.6 10.7 77 2.1 W 7 9 4 5 1015.4 1015.4 0.0
02/06:30pm 16.0 14.9 10.5 70 2.9 NW 7 9 4 5 1015.4 1015.4 0.0
02/06:00pm 17.5 15.4 11.1 66 3.5 N 13 15 7 8 1015.4 1015.4 0.0
02/05:30pm 18.6 16.7 10.4 59 4.4 NNW 11 17 6 9 1015.6 1015.6 0.0
02/05:00pm 19.7 16.7 10.7 56 4.9 N 17 20 9 11 1015.1 1015.1 0.0
02/04:30pm 20.7 17.5 9.9 50 5.8 NNE 17 20 9 11 1014.9 1014.9 0.0
02/04:00pm 20.7 17.5 9.9 50 5.8 NNE 17 20 9 11 1015.3 1015.3 0.0
02/03:30pm 21.1 18.2 9.7 48 6.1 NNE 15 20 8 11 1015.4 1015.4 0.0
02/03:00pm 21.2 18.2 9.4 47 6.3 NE 15 20 8 11 1015.6 1015.6 0.0
02/02:30pm 21.1 17.8 9.7 48 6.1 NNE 17 20 9 11 1015.6 1015.6 0.0
02/02:00pm 21.0 18.0 9.3 47 6.2 NNE 15 20 8 11 1016.1 1016.1 0.0
02/01:30pm 20.3 16.8 8.9 48 6.0 NNE 17 20 9 11 1016.5 1016.5 0.0
02/01:00pm 20.7 17.3 9.3 48 6.1 NE 17 20 9 11 1017.0 1017.0 0.0
02/12:30pm 20.0 16.3 8.0 46 6.2 NE 17 20 9 11 1017.5 1017.5 0.0
02/12:00pm 20.8 17.5 6.4 39 7.2 NE 13 17 7 9 1017.8 1017.8 0.0
02/11:30am 20.6 17.2 4.2 34 7.9 NNE 11 15 6 8 1018.4 1018.4 0.0
02/11:00am 19.4 16.2 5.1 39 6.9 NNE 11 13 6 7 1018.8 1018.8 0.0
02/10:30am 18.7 15.8 4.5 39 6.8 NNE 9 15 5 8 1019.2 1019.2 0.0
02/10:00am 19.2 17.3 3.0 34 7.5 W 2 6 1 3 1019.2 1019.2 0.0
02/09:30am 17.4 14.6 5.0 44 5.9 NNW 9 11 5 6 1019.8 1019.8 0.0
02/09:00am 17.3 14.6 7.4 52 5.0 NNE 11 15 6 8 1019.3 1019.3 0.0
02/08:30am 16.5 15.9 7.4 55 4.5 CALM 0 0 0 0 1019.4 1019.4 0.0
02/08:00am 14.7 14.4 8.6 67 3.1 CALM 0 0 0 0 1019.1 1019.1 0.0
02/07:30am 10.7 8.9 7.2 79 1.7 W 6 7 3 4 1018.8 1018.8 0.0
02/07:00am 10.0 8.3 7.4 84 1.2 WSW 6 7 3 4 1018.2 1018.2 0.0
02/06:30am 6.3 3.9 4.5 88 0.8 WSW 6 7 3 4 1017.8 1017.8 0.0
02/06:00am 6.9 4.7 5.5 91 0.6 S 6 7 3 4 1017.7 1017.7 0.0
02/05:30am 6.7 4.5 5.5 92 0.5 SW 6 9 3 5 1017.4 1017.4 0.0
02/05:00am 5.7 3.2 4.8 94 0.4 W 7 9 4 5 1017.1 1017.1 0.0
02/04:30am 5.4 4.1 4.2 92 0.5 CALM 0 0 0 0 1016.9 1016.9 0.0
02/04:00am 6.1 4.1 4.6 90 0.6 SW 4 7 2 4 1016.6 1016.6 0.0
02/03:30am 6.5 5.2 4.3 86 0.9 CALM 0 0 0 0 1016.4 1016.4 0.0
02/03:00am 8.6 6.2 7.1 90 0.7 SW 9 11 5 6 1016.3 1016.3 0.0
02/02:30am 9.0 8.0 7.5 90 0.7 SSW 2 7 1 4 1016.5 1016.5 0.0
02/02:00am 8.8 6.9 7.6 92 0.6 SSW 7 9 4 5 1016.5 1016.5 0.0
02/01:30am 9.7 8.3 8.9 95 0.4 WSW 6 11 3 6 1016.5 1016.5 0.0
02/01:00am 8.8 7.9 7.7 93 0.5 SSW 2 7 1 4 1016.4 1016.4 0.0
02/12:30am 9.9 8.2 8.2 89 0.8 S 7 7 4 4 1016.3 1016.3 0.0
02/12:00am 10.8 8.5 9.1 89 0.8 SW 11 13 6 7 1016.0 1016.0 0.0
 
Date/Time
EST
Temp
°C
App
Temp
°C
Dew
Point
Rel
Hum
%
Delta-T
°C
Wind Press
QNH
hPa
Press
MSL
hPa
Rain
since 9 am
mm
Dir
 
Spd
km/h
Gust
km/h
Spd
kts
Gust
kts
01/11:30pm 10.0 8.4 7.9 87 1.0 SW 6 7 3 4 1016.1 1016.1 0.0
01/11:00pm 11.4 9.6 9.5 88 1.0 SW 9 15 5 8 1016.0 1016.0 0.0
01/10:30pm 12.1 9.7 10.2 88 1.0 WSW 13 17 7 9 1015.8 1015.8 0.0
01/10:00pm 12.6 10.7 10.5 87 1.1 SSW 11 15 6 8 1015.9 1015.9 0.0
01/09:30pm 12.4 9.8 10.8 90 0.8 WSW 15 17 8 9 1015.7 1015.7 0.0
01/09:00pm 12.3 11.1 10.2 87 1.1 S 7 9 4 5 1015.5 1015.5 0.0
01/08:30pm 13.7 11.2 11.2 85 1.3 SW 15 17 8 9 1015.3 1015.3 0.0
01/08:00pm 13.4 10.8 10.8 84 1.4 WSW 15 19 8 10 1015.0 1015.0 0.0
01/07:30pm 13.7 12.6 10.7 82 1.6 SW 7 11 4 6 1014.7 1014.7 0.0
01/07:00pm 14.1 13.0 10.7 80 1.8 WSW 7 11 4 6 1014.5 1014.5 0.0
01/06:30pm 14.9 14.1 10.9 77 2.1 W 6 9 3 5 1014.1 1014.1 0.0
01/06:00pm 16.7 15.4 10.1 65 3.5 N 7 11 4 6 1013.7 1013.7 0.0
01/05:30pm 18.7 18.3 9.8 56 4.7 NE 2 9 1 5 1013.4 1013.4 0.0
01/05:00pm 20.5 18.3 9.4 49 5.9 NNE 11 15 6 8 1013.1 1013.1 0.0
01/04:30pm 21.0 18.0 9.3 47 6.2 NE 15 20 8 11 1012.8 1012.8 0.0
01/04:00pm 21.3 17.9 9.2 46 6.4 NE 17 20 9 11 1012.7 1012.7 0.0
01/03:30pm 21.4 17.7 8.0 42 7.0 NE 17 24 9 13 1012.8 1012.8 0.0
01/03:00pm 21.0 16.9 8.0 43 6.8 NE 19 22 10 12 1012.9 1012.9 0.0
01/02:30pm 21.2 17.1 7.8 42 6.9 NE 19 22 10 12 1013.3 1013.3 0.0
01/02:00pm 21.0 17.5 8.6 45 6.5 NE 17 22 9 12 1013.6 1013.6 0.0
01/01:30pm 20.9 17.1 7.5 42 6.9 NE 17 20 9 11 1013.8 1013.8 0.0
01/01:00pm 20.9 17.2 7.9 43 6.7 NE 17 20 9 11 1014.0 1014.0 0.0
01/12:30pm 20.6 16.7 6.9 41 7.0 NE 17 24 9 13 1014.3 1014.3 0.0
01/12:00pm 20.4 16.6 7.4 43 6.7 NE 17 20 9 11 1014.7 1014.7 0.0
01/11:30am 20.5 16.9 8.2 45 6.4 NNE 17 20 9 11 1015.4 1015.4 0.0
01/11:00am 19.7 16.1 6.8 43 6.5 NNE 15 17 8 9 1015.9 1015.9 0.0
01/10:30am 19.7 16.3 6.1 41 6.8 NNE 13 15 7 8 1016.2 1016.2 0.0
01/10:00am 19.3 16.3 6.1 42 6.5 NNE 11 15 6 8 1016.4 1016.4 0.0
01/09:30am 19.2 17.0 6.3 43 6.4 NNE 7 9 4 5 1016.4 1016.4 0.0
01/09:00am 18.6 17.2 7.4 48 5.7 NNE 4 7 2 4 1016.4 1016.4 0.0
01/08:30am 17.5 17.1 8.4 55 4.7 CALM 0 0 0 0 1016.4 1016.4 0.0
01/08:00am 14.4 14.0 8.4 67 3.0 CALM 0 0 0 0 1016.1 1016.1 0.0
01/07:30am 11.7 11.1 8.9 83 1.4 SW 2 6 1 3 1016.0 1016.0 0.0
01/07:00am 10.1 8.7 8.7 91 0.7 WSW 6 9 3 5 1015.8 1015.8 0.0
01/06:30am 7.9 6.8 6.8 93 0.5 WSW 2 7 1 4 1015.6 1015.6 0.0
01/06:00am 8.4 6.7 7.6 95 0.4 SSW 6 6 3 3 1015.2 1015.2 0.0
01/05:30am 7.3 6.0 6.2 93 0.5 SW 2 9 1 5 1015.0 1015.0 0.0
01/05:00am 7.9 6.8 6.8 93 0.5 WSW 2 6 1 3 1014.6 1014.6 0.0
01/04:30am 8.1 6.1 7.0 93 0.5 SW 7 7 4 4 1014.5 1014.5 0.0
01/04:00am 8.1 6.2 6.7 91 0.6 SSW 6 7 3 4 1014.4 1014.4 0.0
01/03:30am 8.9 7.0 6.9 87 0.9 WSW 6 9 3 5 1014.4 1014.4 0.0
01/03:00am 9.3 8.8 7.7 90 0.8 CALM 0 2 0 1 1014.5 1014.5 0.0
01/02:30am 9.3 7.8 8.4 94 0.4 SW 6 11 3 6 1014.5 1014.5 0.0
01/02:00am 8.9 8.0 7.8 93 0.5 WSW 2 6 1 3 1014.7 1014.7 0.0
01/01:30am 10.0 8.5 9.2 95 0.4 SW 7 9 4 5 1014.8 1014.8 0.0
01/01:00am 10.4 9.9 9.5 94 0.4 SSW 2 6 1 3 1015.0 1015.0 0.0
01/12:30am 10.5 9.2 9.3 92 0.6 SSW 6 9 3 5 1015.3 1015.3 0.0
01/12:00am 11.8 12.0 10.5 92 0.7 CALM 0 0 0 0 1015.6 1015.6 0.0
 
Date/Time
EST
Temp
°C
App
Temp
°C
Dew
Point
Rel
Hum
%
Delta-T
°C
Wind Press
QNH
hPa
Press
MSL
hPa
Rain
since 9 am
mm
Dir
 
Spd
km/h
Gust
km/h
Spd
kts
Gust
kts
31/11:30pm 11.8 11.5 10.2 90 0.8 SSW 2 6 1 3 1015.8 1015.8 0.0
31/11:00pm 12.2 10.0 10.9 92 0.7 WSW 13 15 7 8 1015.7 1015.7 0.0
31/10:30pm 11.9 10.1 10.8 93 0.6 WSW 11 13 6 7 1015.8 1015.8 0.0
31/10:00pm 11.9 10.7 10.3 90 0.8 WSW 7 11 4 6 1015.7 1015.7 0.0
31/09:30pm 12.6 12.8 10.5 87 1.1 CALM 0 6 0 3 1015.6 1015.6 0.0
31/09:00pm 12.7 11.5 10.2 85 1.3 SW 7 15 4 8 1015.5 1015.5 0.0
31/08:30pm 13.2 11.1 11.1 87 1.1 WSW 13 17 7 9 1015.3 1015.3 0.0
31/08:00pm 13.5 11.1 11.4 87 1.1 WSW 15 17 8 9 1015.2 1015.2 0.0
31/07:30pm 13.4 11.7 11.3 87 1.1 WSW 11 13 6 7 1015.0 1015.0 0.0

Other Formats:

Comma delimited format used in spreadsheet applications
http://www.bom.gov.au/fwo/IDN60801/IDN60801.94592.axf

JavaScript Object Notation format (JSON) in row-major order
http://www.bom.gov.au/fwo/IDN60801/IDN60801.94592.json